createdAt,value
2022-08-07T00:02:36.194Z,9.00
2022-08-07T00:04:17.855Z,7.90
2022-08-07T00:06:53.674Z,7.90
2022-08-07T00:09:29.143Z,8.20
2022-08-07T00:12:06.242Z,7.60
2022-08-07T00:14:35.742Z,7.50
2022-08-07T00:17:06.718Z,7.30
2022-08-07T00:20:02.763Z,7.40
2022-08-07T00:22:35.349Z,8.20
2022-08-07T00:25:07.338Z,8.20
2022-08-07T00:27:53.774Z,7.70
2022-08-07T00:30:28.552Z,7.60
2022-08-07T00:32:59.005Z,9.20
2022-08-07T00:35:30.408Z,8.00
2022-08-07T00:38:01.151Z,9.10
2022-08-07T00:40:36.281Z,8.50
2022-08-07T00:46:01.776Z,8.00
2022-08-07T00:48:32.654Z,7.80
2022-08-07T00:51:03.628Z,9.60
2022-08-07T00:53:39.247Z,8.20
2022-08-07T00:56:30.209Z,8.30
2022-08-07T00:59:01.678Z,8.40
2022-08-07T01:01:43.988Z,8.50
2022-08-07T01:04:24.595Z,7.10
2022-08-07T01:06:59.288Z,9.00
2022-08-07T01:10:04.292Z,8.90
2022-08-07T01:12:29.734Z,9.40
2022-08-07T01:15:03.744Z,9.00
2022-08-07T01:17:36.260Z,9.00
2022-08-07T01:20:16.701Z,7.80
2022-08-07T01:23:00.500Z,7.60
2022-08-07T01:25:55.426Z,8.40
2022-08-07T01:28:28.087Z,7.90
2022-08-07T01:31:01.432Z,8.80
2022-08-07T01:33:55.461Z,8.20
2022-08-07T01:36:33.892Z,9.60
2022-08-07T01:39:13.145Z,8.50
2022-08-07T01:41:55.032Z,9.90
2022-08-07T01:44:42.904Z,8.40
2022-08-07T01:48:17.891Z,8.10
2022-08-07T01:50:15.880Z,8.60
2022-08-07T01:52:58.756Z,9.00
2022-08-07T01:55:39.051Z,8.80
2022-08-07T01:58:28.886Z,8.40
2022-08-07T02:01:44.801Z,8.10
2022-08-07T02:04:08.070Z,9.50
2022-08-07T02:06:45.923Z,9.30
2022-08-07T02:09:37.467Z,8.50
2022-08-07T02:12:22.129Z,10.00
2022-08-07T02:15:06.762Z,8.10
2022-08-07T02:17:49.860Z,9.00
2022-08-07T02:20:24.753Z,9.50
2022-08-07T02:23:07.598Z,8.20
2022-08-07T02:26:10.305Z,8.20
2022-08-07T02:31:29.087Z,6.50
2022-08-07T02:34:10.934Z,6.20
2022-08-07T02:36:53.863Z,6.90
2022-08-07T02:39:43.181Z,8.40
2022-08-07T02:42:19.673Z,8.20
2022-08-07T02:44:54.085Z,9.40
2022-08-07T02:47:44.832Z,10.60
2022-08-07T02:53:03.279Z,9.00
2022-08-07T02:56:02.990Z,10.50
2022-08-07T02:58:33.781Z,11.80
2022-08-07T03:01:05.963Z,10.80
2022-08-07T03:03:50.381Z,10.50
2022-08-07T03:06:35.899Z,11.10
2022-08-07T03:09:44.509Z,11.60
2022-08-07T03:12:08.120Z,9.40
2022-08-07T03:14:53.236Z,9.50
2022-08-07T03:17:25.069Z,8.70
2022-08-07T03:19:57.957Z,9.10
2022-08-07T03:22:31.177Z,9.10
2022-08-07T03:25:02.660Z,9.60
2022-08-07T03:28:08.834Z,11.90
2022-08-07T03:30:34.343Z,10.40
2022-08-07T03:33:08.023Z,11.00
2022-08-07T03:35:50.238Z,9.90
2022-08-07T03:38:29.572Z,11.80
2022-08-07T03:41:03.993Z,9.20
2022-08-07T03:43:36.095Z,10.60
2022-08-07T03:46:10.398Z,10.90
2022-08-07T03:49:02.558Z,8.70
2022-08-07T03:51:47.081Z,9.70
2022-08-07T03:54:36.344Z,9.80
2022-08-07T03:58:35.342Z,8.70
2022-08-07T04:00:07.174Z,10.10
2022-08-07T04:02:49.445Z,9.30
2022-08-07T04:05:39.512Z,10.40
2022-08-07T04:08:18.281Z,9.30
2022-08-07T04:10:54.290Z,7.80
2022-08-07T04:14:09.410Z,9.30
2022-08-07T04:16:34.343Z,9.50
2022-08-07T04:19:12.820Z,9.70
2022-08-07T04:21:59.043Z,9.20
2022-08-07T04:24:38.735Z,9.00
2022-08-07T04:27:15.251Z,7.50
2022-08-07T04:30:01.629Z,9.10
2022-08-07T04:32:47.948Z,8.40
2022-08-07T04:35:19.928Z,9.40
2022-08-07T04:38:03.017Z,8.30
2022-08-07T04:40:51.338Z,9.30
2022-08-07T04:44:12.715Z,8.70
2022-08-07T04:46:34.333Z,7.80
2022-08-07T04:49:18.084Z,9.00
2022-08-07T04:52:26.488Z,8.70
2022-08-07T04:55:15.370Z,7.80
2022-08-07T04:58:11.625Z,8.30
2022-08-07T05:01:13.494Z,11.10
2022-08-07T05:04:12.327Z,20.30
2022-08-07T05:06:54.779Z,28.30
2022-08-07T05:10:01.420Z,71.60
2022-08-07T05:12:51.458Z,90.40
2022-08-07T05:15:34.589Z,97.60
2022-08-07T05:18:14.546Z,95.20
2022-08-07T05:20:48.365Z,81.30
2022-08-07T05:23:30.009Z,79.60
2022-08-07T05:26:15.677Z,69.60
2022-08-07T05:28:53.482Z,30.70
2022-08-07T05:31:35.347Z,22.10
2022-08-07T05:34:15.667Z,14.20
2022-08-07T05:36:53.186Z,9.20
2022-08-07T05:40:17.404Z,6.80
2022-08-07T05:42:33.794Z,6.90
2022-08-07T05:45:25.845Z,6.00
2022-08-07T05:48:02.330Z,6.10
2022-08-07T05:50:43.818Z,6.90
2022-08-07T05:54:12.732Z,6.40
2022-08-07T05:58:42.130Z,7.30
2022-08-07T06:01:23.422Z,6.40
2022-08-07T06:04:01.128Z,7.00
2022-08-07T06:06:37.007Z,6.90
2022-08-07T06:09:08.993Z,7.10
2022-08-07T06:11:43.637Z,7.40
2022-08-07T06:14:20.877Z,7.10
2022-08-07T06:16:55.856Z,6.60
2022-08-07T06:19:58.314Z,6.60
2022-08-07T06:22:24.129Z,6.10
2022-08-07T06:25:19.709Z,6.00
2022-08-07T06:28:01.686Z,7.10
2022-08-07T06:30:37.290Z,8.60
2022-08-07T06:36:13.326Z,6.90
2022-08-07T06:38:38.229Z,7.00
2022-08-07T06:41:13.283Z,7.20
2022-08-07T06:44:01.438Z,6.60
2022-08-07T06:46:36.267Z,7.30
2022-08-07T06:49:08.822Z,6.60
2022-08-07T06:51:49.655Z,7.10
2022-08-07T06:55:32.936Z,6.80
2022-08-07T06:57:11.994Z,5.70
2022-08-07T07:00:11.707Z,5.70
2022-08-07T07:02:48.475Z,6.50
2022-08-07T07:06:02.960Z,6.40
2022-08-07T07:08:18.482Z,6.00
2022-08-07T07:10:57.344Z,6.60
2022-08-07T07:13:58.327Z,6.80
2022-08-07T07:16:39.248Z,7.20
2022-08-07T07:19:57.051Z,7.00
2022-08-07T07:22:36.673Z,7.30
2022-08-07T07:26:31.382Z,7.00
2022-08-07T07:28:42.118Z,7.10
2022-08-07T07:31:21.477Z,6.60
2022-08-07T07:33:57.095Z,7.00
2022-08-07T07:36:32.316Z,6.50
2022-08-07T07:39:03.908Z,7.00
2022-08-07T07:42:01.903Z,6.30
2022-08-07T07:44:26.706Z,6.10
2022-08-07T07:47:12.074Z,7.30
2022-08-07T07:50:35.772Z,7.00
2022-08-07T07:52:40.035Z,7.80
2022-08-07T07:55:10.920Z,7.00
2022-08-07T07:57:51.683Z,7.00
2022-08-07T08:00:29.987Z,6.90
2022-08-07T08:03:08.227Z,6.80
2022-08-07T08:05:50.846Z,6.50
2022-08-07T08:08:34.346Z,6.70
2022-08-07T08:11:08.031Z,6.60
2022-08-07T08:13:52.862Z,6.40
2022-08-07T08:16:38.187Z,6.90
2022-08-07T08:20:15.629Z,6.30
2022-08-07T08:22:19.314Z,6.40
2022-08-07T08:28:03.690Z,6.40
2022-08-07T08:30:42.470Z,5.90
2022-08-07T08:33:18.975Z,6.20
2022-08-07T08:35:56.096Z,6.70
2022-08-07T08:38:29.879Z,7.00
2022-08-07T08:41:58.325Z,7.00
2022-08-07T08:44:45.697Z,6.20
2022-08-07T08:47:56.079Z,5.90
2022-08-07T08:50:39.498Z,6.00
2022-08-07T08:53:20.638Z,6.60
2022-08-07T08:55:59.363Z,5.90
2022-08-07T08:59:06.651Z,5.90
2022-08-07T09:02:14.360Z,5.90
2022-08-07T09:05:03.401Z,5.50
2022-08-07T09:07:57.576Z,6.60
2022-08-07T09:10:45.524Z,6.30
2022-08-07T09:13:37.132Z,6.60
2022-08-07T09:16:30.824Z,6.20
2022-08-07T09:19:51.418Z,6.40
2022-08-07T09:24:32.613Z,6.50
2022-08-07T09:25:54.228Z,6.20
2022-08-07T09:30:05.063Z,6.00
2022-08-07T09:32:03.426Z,6.10
2022-08-07T09:36:04.205Z,9.00
2022-08-07T09:38:54.637Z,6.60
2022-08-07T09:41:58.855Z,5.20
2022-08-07T09:47:23.984Z,6.20
2022-08-07T09:50:02.605Z,6.10
2022-08-07T09:52:35.262Z,7.20
2022-08-07T09:55:36.885Z,6.50
2022-08-07T09:58:51.284Z,5.10
2022-08-07T10:02:04.860Z,6.50
2022-08-07T10:05:12.381Z,4.90
2022-08-07T10:07:59.792Z,4.70
2022-08-07T10:11:17.199Z,5.30
2022-08-07T10:14:31.199Z,5.50
2022-08-07T10:17:16.849Z,5.50
2022-08-07T10:20:12.790Z,5.30
2022-08-07T10:23:10.897Z,5.10
2022-08-07T10:25:58.692Z,6.20
2022-08-07T10:28:49.473Z,5.80
2022-08-07T10:31:53.996Z,5.70
2022-08-07T10:34:54.736Z,5.30
2022-08-07T10:38:09.830Z,4.80
2022-08-07T10:40:56.677Z,4.90
2022-08-07T10:43:34.708Z,4.90
2022-08-07T10:46:25.217Z,4.60
2022-08-07T10:49:15.179Z,4.50
2022-08-07T10:52:13.857Z,4.70
2022-08-07T10:55:02.059Z,4.60
2022-08-07T10:57:42.675Z,4.70
2022-08-07T11:00:36.951Z,4.80
2022-08-07T11:03:28.144Z,4.80
2022-08-07T11:06:40.559Z,4.20
2022-08-07T11:10:09.318Z,4.50
2022-08-07T11:12:39.271Z,4.30
2022-08-07T11:15:31.515Z,4.70
2022-08-07T11:18:15.247Z,3.90
2022-08-07T11:21:03.393Z,4.90
2022-08-07T11:23:58.075Z,4.60
2022-08-07T11:26:48.147Z,5.50
2022-08-07T11:29:42.193Z,4.40
2022-08-07T11:32:25.368Z,4.20
2022-08-07T11:35:03.255Z,4.50
2022-08-07T11:37:58.067Z,4.80
2022-08-07T11:40:50.148Z,4.30
2022-08-07T11:44:11.812Z,3.80
2022-08-07T11:47:06.181Z,4.80
2022-08-07T11:50:31.964Z,4.60
2022-08-07T11:53:16.781Z,4.40
2022-08-07T11:56:27.306Z,4.40
2022-08-07T12:00:07.996Z,4.40
2022-08-07T12:02:40.260Z,4.90
2022-08-07T12:05:49.244Z,5.10
2022-08-07T12:08:31.901Z,4.60
2022-08-07T12:11:21.119Z,4.20
2022-08-07T12:14:29.876Z,4.70
2022-08-07T12:17:09.062Z,4.80
2022-08-07T12:20:08.819Z,5.60
2022-08-07T12:23:14.536Z,4.20
2022-08-07T12:26:05.989Z,5.20
2022-08-07T12:28:56.861Z,4.90
2022-08-07T12:31:52.329Z,4.90
2022-08-07T12:34:25.993Z,5.30
2022-08-07T12:36:58.813Z,5.10
2022-08-07T12:39:42.363Z,4.40
2022-08-07T12:42:18.698Z,4.30
2022-08-07T12:45:05.786Z,5.30
2022-08-07T12:47:57.292Z,5.30
2022-08-07T12:50:49.198Z,4.40
2022-08-07T12:53:19.149Z,4.50
2022-08-07T12:56:23.855Z,4.80
2022-08-07T12:58:59.607Z,4.70
2022-08-07T13:02:09.975Z,4.50
2022-08-07T13:05:14.670Z,5.00
2022-08-07T13:08:11.943Z,5.60
2022-08-07T13:11:19.932Z,4.50
2022-08-07T13:14:04.472Z,4.60
2022-08-07T13:16:53.403Z,5.50
2022-08-07T13:20:06.646Z,5.50
2022-08-07T13:22:56.133Z,5.50
2022-08-07T13:25:50.628Z,5.50
2022-08-07T13:28:35.926Z,5.20
2022-08-07T13:31:18.908Z,4.90
2022-08-07T13:34:33.503Z,5.50
2022-08-07T13:37:20.778Z,5.60
2022-08-07T13:40:36.701Z,6.20
2022-08-07T13:43:16.081Z,6.00
2022-08-07T13:46:12.195Z,5.80
2022-08-07T13:48:51.868Z,6.40
2022-08-07T13:52:22.519Z,5.90
2022-08-07T13:54:33.542Z,6.40
2022-08-07T13:57:12.070Z,5.80
2022-08-07T13:59:53.169Z,5.70
2022-08-07T14:02:39.492Z,5.60
2022-08-07T14:05:24.153Z,5.30
2022-08-07T14:08:01.528Z,5.20
2022-08-07T14:10:41.750Z,5.90
2022-08-07T14:13:19.810Z,5.20
2022-08-07T14:16:02.586Z,5.60
2022-08-07T14:18:50.011Z,6.20
2022-08-07T14:22:01.860Z,6.30
2022-08-07T14:24:41.395Z,5.30
2022-08-07T14:28:11.704Z,5.30
2022-08-07T14:30:12.322Z,5.20
2022-08-07T14:32:47.667Z,6.50
2022-08-07T14:35:45.307Z,6.00
2022-08-07T14:38:26.271Z,5.90
2022-08-07T14:41:14.905Z,5.90
2022-08-07T14:43:57.743Z,6.10
2022-08-07T14:49:57.284Z,5.40
2022-08-07T14:52:27.334Z,5.30
2022-08-07T14:55:00.891Z,6.20
2022-08-07T14:57:58.648Z,6.50
2022-08-07T15:00:30.873Z,5.70
2022-08-07T15:03:19.541Z,6.20
2022-08-07T15:05:54.863Z,5.60
2022-08-07T15:08:49.734Z,5.70
2022-08-07T15:11:53.192Z,6.00
2022-08-07T15:14:34.377Z,6.10
2022-08-07T15:17:33.005Z,6.30
2022-08-07T15:20:33.689Z,6.80
2022-08-07T15:23:20.094Z,6.30
2022-08-07T15:25:56.819Z,8.40
2022-08-07T15:28:37.999Z,5.60
2022-08-07T15:32:01.362Z,5.30
2022-08-07T15:34:06.397Z,5.40
2022-08-07T15:37:04.174Z,4.90
2022-08-07T15:39:58.972Z,6.00
2022-08-07T15:45:55.467Z,19.10
2022-08-07T15:48:35.016Z,8.90
2022-08-07T15:51:11.976Z,6.70
2022-08-07T15:53:53.148Z,6.30
2022-08-07T15:56:51.373Z,6.30
2022-08-07T15:59:39.301Z,13.10
2022-08-07T16:02:23.475Z,8.30
2022-08-07T16:05:15.924Z,10.70
2022-08-07T16:08:31.977Z,7.60
2022-08-07T16:10:48.878Z,6.40
2022-08-07T16:13:57.756Z,6.20
2022-08-07T16:16:42.906Z,6.20
2022-08-07T16:20:05.646Z,6.50
2022-08-07T16:22:55.464Z,7.00
2022-08-07T16:25:55.058Z,6.20
2022-08-07T16:29:18.246Z,7.00
2022-08-07T16:31:58.638Z,6.50
2022-08-07T16:34:45.371Z,6.40
2022-08-07T16:38:04.607Z,6.90
2022-08-07T16:41:02.120Z,6.80
2022-08-07T16:44:04.342Z,5.30
2022-08-07T16:47:38.310Z,7.30
2022-08-07T16:50:38.699Z,5.50
2022-08-07T16:53:48.037Z,6.90
2022-08-07T16:56:21.278Z,6.50
2022-08-07T16:59:10.927Z,6.40
2022-08-07T17:02:03.206Z,6.70
2022-08-07T17:04:58.620Z,7.10
2022-08-07T17:07:55.636Z,7.30
2022-08-07T17:10:54.338Z,7.20
2022-08-07T17:14:19.555Z,7.00
2022-08-07T17:16:58.729Z,7.40
2022-08-07T17:20:00.945Z,7.40
2022-08-07T17:22:42.437Z,7.30
2022-08-07T17:25:45.745Z,7.70
2022-08-07T17:28:19.681Z,7.50
2022-08-07T17:31:15.985Z,6.90
2022-08-07T17:34:17.969Z,6.90
2022-08-07T17:36:59.995Z,7.90
2022-08-07T17:43:14.861Z,8.00
2022-08-07T17:46:14.413Z,8.10
2022-08-07T17:49:02.421Z,7.10
2022-08-07T17:52:01.179Z,8.40
2022-08-07T17:54:53.828Z,6.80
2022-08-07T17:57:56.308Z,7.40
2022-08-07T18:00:34.646Z,7.90
2022-08-07T18:04:04.250Z,7.30
2022-08-07T18:06:42.964Z,7.60
2022-08-07T18:10:06.502Z,7.40
2022-08-07T18:12:34.438Z,8.00
2022-08-07T18:15:13.364Z,8.00
2022-08-07T18:21:02.639Z,7.80
2022-08-07T18:21:38.186Z,7.60
2022-08-07T18:24:33.826Z,7.00
2022-08-07T18:27:06.345Z,6.80
2022-08-07T18:30:06.280Z,7.80
2022-08-07T18:33:15.125Z,6.10
2022-08-07T18:36:17.189Z,7.90
2022-08-07T18:40:08.819Z,7.50
2022-08-07T18:42:16.906Z,7.80
2022-08-07T18:45:44.819Z,6.00
2022-08-07T18:50:05.502Z,7.90
2022-08-07T18:52:52.478Z,8.00
2022-08-07T18:54:30.468Z,8.00
2022-08-07T18:57:29.478Z,7.60
2022-08-07T19:00:32.098Z,8.40
2022-08-07T19:03:18.271Z,7.10
2022-08-07T19:06:03.482Z,7.40
2022-08-07T19:08:58.633Z,8.00
2022-08-07T19:11:37.472Z,8.00
2022-08-07T19:14:20.319Z,7.00
2022-08-07T19:17:08.047Z,8.00
2022-08-07T19:19:58.954Z,9.00
2022-08-07T19:22:51.915Z,8.10
2022-08-07T19:26:22.930Z,8.80
2022-08-07T19:28:30.269Z,8.80
2022-08-07T19:31:59.820Z,8.30
2022-08-07T19:34:32.374Z,8.90
2022-08-07T19:37:10.245Z,7.80
2022-08-07T19:39:57.435Z,7.70
2022-08-07T19:42:42.851Z,8.30
2022-08-07T19:46:06.231Z,8.20
2022-08-07T19:48:18.740Z,7.70
2022-08-07T19:50:54.491Z,8.70
2022-08-07T19:54:32.670Z,8.20
2022-08-07T19:58:00.890Z,8.00
2022-08-07T19:59:21.851Z,8.50
2022-08-07T20:01:59.242Z,6.50
2022-08-07T20:04:37.663Z,9.10
2022-08-07T20:07:10.259Z,8.90
2022-08-07T20:10:36.477Z,9.70
2022-08-07T20:12:43.088Z,8.80
2022-08-07T20:15:19.071Z,10.30
2022-08-07T20:18:01.709Z,8.90
2022-08-07T20:20:35.277Z,9.10
2022-08-07T20:23:23.014Z,9.70
2022-08-07T20:26:09.766Z,10.40
2022-08-07T20:31:21.187Z,8.90
2022-08-07T20:33:57.544Z,8.30
2022-08-07T20:36:30.009Z,10.20
2022-08-07T20:39:17.820Z,10.20
2022-08-07T20:41:55.265Z,10.60
2022-08-07T20:44:34.561Z,9.60
2022-08-07T20:47:09.688Z,9.40
2022-08-07T20:49:57.799Z,9.70
2022-08-07T20:52:51.532Z,9.80
2022-08-07T20:55:26.059Z,10.80
2022-08-07T20:58:03.986Z,10.70
2022-08-07T21:00:45.679Z,11.40
2022-08-07T21:03:18.910Z,12.10
2022-08-07T21:06:21.765Z,13.20
2022-08-07T21:09:13.966Z,12.70
2022-08-07T21:11:50.882Z,12.10
2022-08-07T21:14:34.040Z,12.40
2022-08-07T21:18:03.031Z,13.40
2022-08-07T21:20:05.565Z,13.10
2022-08-07T21:22:45.162Z,14.30
2022-08-07T21:25:20.667Z,14.90
2022-08-07T21:28:04.703Z,16.20
2022-08-07T21:30:47.415Z,16.40
2022-08-07T21:33:41.535Z,16.60
2022-08-07T21:36:32.735Z,15.20
2022-08-07T21:39:47.850Z,15.30
2022-08-07T21:42:45.998Z,13.80
2022-08-07T21:46:08.946Z,14.30
2022-08-07T21:48:26.957Z,15.50
2022-08-07T21:51:24.952Z,14.80
2022-08-07T21:54:22.285Z,15.80
2022-08-07T21:57:39.936Z,14.80
2022-08-07T22:00:22.949Z,16.10
2022-08-07T22:02:59.232Z,14.40
2022-08-07T22:05:45.208Z,14.40
2022-08-07T22:08:20.915Z,13.50
2022-08-07T22:11:00.118Z,15.20
2022-08-07T22:16:46.906Z,14.40
2022-08-07T22:19:52.056Z,16.40
2022-08-07T22:22:36.739Z,18.40
2022-08-07T22:25:36.689Z,18.70
2022-08-07T22:28:32.503Z,14.50
2022-08-07T22:31:58.937Z,13.30
2022-08-07T22:34:33.180Z,12.30
2022-08-07T22:37:15.104Z,13.50
2022-08-07T22:39:59.517Z,15.70
2022-08-07T22:42:34.218Z,15.30
2022-08-07T22:45:10.965Z,14.60
2022-08-07T22:48:56.239Z,12.40
2022-08-07T22:51:36.705Z,14.20
2022-08-07T22:54:32.796Z,13.00
2022-08-07T22:57:17.129Z,14.70
2022-08-07T22:59:52.933Z,12.90
2022-08-07T23:02:49.275Z,12.30
2022-08-07T23:06:07.612Z,12.10
2022-08-07T23:08:46.292Z,10.20
2022-08-07T23:11:48.554Z,10.00
2022-08-07T23:17:03.946Z,10.10
2022-08-07T23:20:05.157Z,10.00
2022-08-07T23:23:09.771Z,10.00
2022-08-07T23:26:01.316Z,10.40
2022-08-07T23:29:16.576Z,13.70
2022-08-07T23:34:20.708Z,11.00
2022-08-07T23:35:13.383Z,11.40
2022-08-07T23:38:14.472Z,12.50
2022-08-07T23:40:51.712Z,12.10
2022-08-07T23:43:51.368Z,11.50
2022-08-07T23:47:07.592Z,12.60
2022-08-07T23:50:02.065Z,11.10
2022-08-07T23:53:00.046Z,12.40
2022-08-07T23:55:55.519Z,11.40
2022-08-07T23:58:37.334Z,12.30
